sensor_id;sensor_type;location;lat;lon;timestamp;P1;durP1;ratioP1;P2;durP2;ratioP2
71562;SDS011;59391;52.504;13.438;2023-09-12T00:01:30;22.63;;;16.97;;
71562;SDS011;59391;52.504;13.438;2023-09-12T00:03:57;23.63;;;16.92;;
71562;SDS011;59391;52.504;13.438;2023-09-12T00:06:23;21.70;;;15.45;;
71562;SDS011;59391;52.504;13.438;2023-09-12T00:08:51;22.10;;;15.07;;
71562;SDS011;59391;52.504;13.438;2023-09-12T00:11:17;22.77;;;16.15;;
71562;SDS011;59391;52.504;13.438;2023-09-12T00:13:42;24.45;;;19.63;;
71562;SDS011;59391;52.504;13.438;2023-09-12T00:16:09;22.63;;;15.40;;
71562;SDS011;59391;52.504;13.438;2023-09-12T00:18:35;21.93;;;15.70;;
71562;SDS011;59391;52.504;13.438;2023-09-12T00:21:02;22.05;;;15.40;;
71562;SDS011;59391;52.504;13.438;2023-09-12T00:23:28;21.30;;;15.70;;
71562;SDS011;59391;52.504;13.438;2023-09-12T00:25:54;22.08;;;15.68;;
71562;SDS011;59391;52.504;13.438;2023-09-12T00:28:22;25.25;;;15.68;;
71562;SDS011;59391;52.504;13.438;2023-09-12T00:30:48;23.37;;;16.30;;
71562;SDS011;59391;52.504;13.438;2023-09-12T00:33:13;21.30;;;15.27;;
71562;SDS011;59391;52.504;13.438;2023-09-12T00:35:39;22.33;;;15.73;;
71562;SDS011;59391;52.504;13.438;2023-09-12T00:38:05;30.75;;;22.40;;
71562;SDS011;59391;52.504;13.438;2023-09-12T00:40:31;20.03;;;16.10;;
71562;SDS011;59391;52.504;13.438;2023-09-12T00:42:58;22.85;;;16.30;;
71562;SDS011;59391;52.504;13.438;2023-09-12T00:45:24;23.45;;;16.83;;
71562;SDS011;59391;52.504;13.438;2023-09-12T00:47:50;24.73;;;15.63;;
71562;SDS011;59391;52.504;13.438;2023-09-12T00:50:17;20.88;;;15.55;;
71562;SDS011;59391;52.504;13.438;2023-09-12T00:52:45;22.67;;;16.37;;
71562;SDS011;59391;52.504;13.438;2023-09-12T00:55:12;21.40;;;16.23;;
71562;SDS011;59391;52.504;13.438;2023-09-12T00:57:39;21.15;;;15.35;;
71562;SDS011;59391;52.504;13.438;2023-09-12T01:00:06;22.50;;;15.50;;
71562;SDS011;59391;52.504;13.438;2023-09-12T01:02:37;21.35;;;14.85;;
71562;SDS011;59391;52.504;13.438;2023-09-12T01:05:06;22.10;;;15.80;;
71562;SDS011;59391;52.504;13.438;2023-09-12T01:07:34;20.88;;;15.63;;
71562;SDS011;59391;52.504;13.438;2023-09-12T01:10:00;20.20;;;14.57;;
71562;SDS011;59391;52.504;13.438;2023-09-12T01:12:27;21.48;;;15.88;;
71562;SDS011;59391;52.504;13.438;2023-09-12T01:14:54;31.73;;;22.38;;
71562;SDS011;59391;52.504;13.438;2023-09-12T01:17:20;21.60;;;15.43;;
71562;SDS011;59391;52.504;13.438;2023-09-12T01:19:50;21.40;;;15.90;;
71562;SDS011;59391;52.504;13.438;2023-09-12T01:28:29;21.83;;;15.57;;
71562;SDS011;59391;52.504;13.438;2023-09-12T01:30:59;23.10;;;15.93;;
71562;SDS011;59391;52.504;13.438;2023-09-12T01:33:27;20.90;;;15.48;;
71562;SDS011;59391;52.504;13.438;2023-09-12T01:35:54;20.42;;;16.33;;
71562;SDS011;59391;52.504;13.438;2023-09-12T01:38:20;22.20;;;17.40;;
71562;SDS011;59391;52.504;13.438;2023-09-12T01:40:48;23.80;;;17.13;;
71562;SDS011;59391;52.504;13.438;2023-09-12T01:43:17;29.73;;;21.35;;
71562;SDS011;59391;52.504;13.438;2023-09-12T01:45:47;21.65;;;16.52;;
71562;SDS011;59391;52.504;13.438;2023-09-12T01:48:19;24.90;;;16.13;;
71562;SDS011;59391;52.504;13.438;2023-09-12T01:50:49;21.30;;;15.40;;
71562;SDS011;59391;52.504;13.438;2023-09-12T01:53:16;25.58;;;15.57;;
71562;SDS011;59391;52.504;13.438;2023-09-12T01:55:42;22.17;;;16.17;;
71562;SDS011;59391;52.504;13.438;2023-09-12T01:58:09;23.55;;;16.23;;
71562;SDS011;59391;52.504;13.438;2023-09-12T02:00:36;22.88;;;16.17;;
71562;SDS011;59391;52.504;13.438;2023-09-12T02:03:04;26.37;;;19.43;;
71562;SDS011;59391;52.504;13.438;2023-09-12T02:05:30;30.10;;;21.50;;
71562;SDS011;59391;52.504;13.438;2023-09-12T02:07:56;22.30;;;15.63;;
71562;SDS011;59391;52.504;13.438;2023-09-12T02:10:22;23.23;;;16.47;;
71562;SDS011;59391;52.504;13.438;2023-09-12T02:12:47;22.17;;;15.57;;
71562;SDS011;59391;52.504;13.438;2023-09-12T02:15:13;20.67;;;15.13;;
71562;SDS011;59391;52.504;13.438;2023-09-12T02:17:39;21.73;;;15.52;;
71562;SDS011;59391;52.504;13.438;2023-09-12T02:20:06;20.27;;;15.20;;
71562;SDS011;59391;52.504;13.438;2023-09-12T02:22:33;22.02;;;15.23;;
71562;SDS011;59391;52.504;13.438;2023-09-12T02:24:59;21.00;;;15.00;;
71562;SDS011;59391;52.504;13.438;2023-09-12T02:27:25;20.43;;;14.70;;
71562;SDS011;59391;52.504;13.438;2023-09-12T02:29:50;23.93;;;15.60;;
71562;SDS011;59391;52.504;13.438;2023-09-12T02:32:16;20.05;;;14.65;;
71562;SDS011;59391;52.504;13.438;2023-09-12T02:34:41;19.83;;;15.07;;
71562;SDS011;59391;52.504;13.438;2023-09-12T02:37:07;20.37;;;15.23;;
71562;SDS011;59391;52.504;13.438;2023-09-12T02:39:33;24.10;;;14.90;;
71562;SDS011;59391;52.504;13.438;2023-09-12T02:41:58;22.47;;;15.47;;
71562;SDS011;59391;52.504;13.438;2023-09-12T02:44:24;21.93;;;15.37;;
71562;SDS011;59391;52.504;13.438;2023-09-12T02:46:50;19.10;;;14.03;;
71562;SDS011;59391;52.504;13.438;2023-09-12T02:49:16;20.58;;;14.82;;
71562;SDS011;59391;52.504;13.438;2023-09-12T02:51:41;20.33;;;15.05;;
71562;SDS011;59391;52.504;13.438;2023-09-12T02:54:07;21.20;;;15.50;;
71562;SDS011;59391;52.504;13.438;2023-09-12T02:56:33;22.00;;;14.52;;
71562;SDS011;59391;52.504;13.438;2023-09-12T02:58:59;18.30;;;14.13;;
71562;SDS011;59391;52.504;13.438;2023-09-12T03:01:24;20.40;;;14.45;;
71562;SDS011;59391;52.504;13.438;2023-09-12T03:03:52;22.03;;;14.53;;
71562;SDS011;59391;52.504;13.438;2023-09-12T03:06:18;26.23;;;21.58;;
71562;SDS011;59391;52.504;13.438;2023-09-12T03:08:43;24.07;;;19.47;;
71562;SDS011;59391;52.504;13.438;2023-09-12T03:11:09;21.83;;;14.90;;
71562;SDS011;59391;52.504;13.438;2023-09-12T03:13:39;19.50;;;14.30;;
71562;SDS011;59391;52.504;13.438;2023-09-12T03:16:09;20.30;;;14.27;;
71562;SDS011;59391;52.504;13.438;2023-09-12T03:18:39;18.47;;;13.60;;
71562;SDS011;59391;52.504;13.438;2023-09-12T03:21:05;19.48;;;14.52;;
71562;SDS011;59391;52.504;13.438;2023-09-12T03:23:31;26.27;;;18.38;;
71562;SDS011;59391;52.504;13.438;2023-09-12T03:26:04;19.88;;;14.35;;
71562;SDS011;59391;52.504;13.438;2023-09-12T03:28:31;19.47;;;14.40;;
71562;SDS011;59391;52.504;13.438;2023-09-12T03:31:06;18.33;;;14.30;;
71562;SDS011;59391;52.504;13.438;2023-09-12T03:33:36;21.88;;;15.85;;
71562;SDS011;59391;52.504;13.438;2023-09-12T03:36:02;22.23;;;17.45;;
71562;SDS011;59391;52.504;13.438;2023-09-12T03:38:28;19.75;;;15.70;;
71562;SDS011;59391;52.504;13.438;2023-09-12T03:40:54;22.90;;;15.90;;
71562;SDS011;59391;52.504;13.438;2023-09-12T03:43:20;20.37;;;15.90;;
71562;SDS011;59391;52.504;13.438;2023-09-12T03:45:45;22.15;;;15.90;;
71562;SDS011;59391;52.504;13.438;2023-09-12T03:48:11;18.70;;;14.87;;
71562;SDS011;59391;52.504;13.438;2023-09-12T03:50:36;23.77;;;15.60;;
71562;SDS011;59391;52.504;13.438;2023-09-12T03:53:02;20.80;;;16.63;;
71562;SDS011;59391;52.504;13.438;2023-09-12T03:55:28;21.65;;;16.55;;
71562;SDS011;59391;52.504;13.438;2023-09-12T03:57:53;20.83;;;15.53;;
71562;SDS011;59391;52.504;13.438;2023-09-12T04:00:19;21.60;;;15.33;;
71562;SDS011;59391;52.504;13.438;2023-09-12T04:02:45;22.63;;;15.52;;
71562;SDS011;59391;52.504;13.438;2023-09-12T04:05:10;20.63;;;15.50;;
71562;SDS011;59391;52.504;13.438;2023-09-12T04:07:36;23.92;;;16.83;;
71562;SDS011;59391;52.504;13.438;2023-09-12T04:10:01;24.00;;;16.03;;
71562;SDS011;59391;52.504;13.438;2023-09-12T04:12:28;20.92;;;15.93;;
71562;SDS011;59391;52.504;13.438;2023-09-12T04:14:53;21.73;;;15.73;;
71562;SDS011;59391;52.504;13.438;2023-09-12T04:17:22;23.13;;;16.17;;
71562;SDS011;59391;52.504;13.438;2023-09-12T04:19:48;22.80;;;16.33;;
71562;SDS011;59391;52.504;13.438;2023-09-12T04:22:14;22.37;;;16.77;;
71562;SDS011;59391;52.504;13.438;2023-09-12T04:24:39;22.92;;;17.80;;
71562;SDS011;59391;52.504;13.438;2023-09-12T04:27:05;28.00;;;17.83;;
71562;SDS011;59391;52.504;13.438;2023-09-12T04:29:34;23.30;;;16.40;;
71562;SDS011;59391;52.504;13.438;2023-09-12T04:32:01;28.00;;;16.83;;
71562;SDS011;59391;52.504;13.438;2023-09-12T04:34:28;23.00;;;16.63;;
71562;SDS011;59391;52.504;13.438;2023-09-12T04:36:55;23.42;;;16.42;;
71562;SDS011;59391;52.504;13.438;2023-09-12T04:39:21;21.07;;;16.00;;
71562;SDS011;59391;52.504;13.438;2023-09-12T04:41:46;24.30;;;16.25;;
71562;SDS011;59391;52.504;13.438;2023-09-12T04:44:12;25.47;;;16.37;;
71562;SDS011;59391;52.504;13.438;2023-09-12T04:46:38;22.88;;;16.20;;
71562;SDS011;59391;52.504;13.438;2023-09-12T04:49:03;33.03;;;17.27;;
71562;SDS011;59391;52.504;13.438;2023-09-12T04:51:29;22.53;;;16.33;;
71562;SDS011;59391;52.504;13.438;2023-09-12T04:53:55;23.30;;;16.95;;
71562;SDS011;59391;52.504;13.438;2023-09-12T04:56:20;21.70;;;16.47;;
71562;SDS011;59391;52.504;13.438;2023-09-12T04:58:49;21.90;;;15.48;;
71562;SDS011;59391;52.504;13.438;2023-09-12T05:01:15;21.92;;;15.43;;
71562;SDS011;59391;52.504;13.438;2023-09-12T05:03:41;23.67;;;16.20;;
71562;SDS011;59391;52.504;13.438;2023-09-12T05:06:08;23.58;;;16.10;;
71562;SDS011;59391;52.504;13.438;2023-09-12T05:08:35;27.30;;;16.67;;
71562;SDS011;59391;52.504;13.438;2023-09-12T05:11:01;23.17;;;15.98;;
71562;SDS011;59391;52.504;13.438;2023-09-12T05:13:28;24.08;;;16.63;;
71562;SDS011;59391;52.504;13.438;2023-09-12T05:15:54;23.35;;;15.85;;
71562;SDS011;59391;52.504;13.438;2023-09-12T05:18:20;23.00;;;16.95;;
71562;SDS011;59391;52.504;13.438;2023-09-12T05:20:46;25.67;;;16.47;;
71562;SDS011;59391;52.504;13.438;2023-09-12T05:23:12;23.17;;;16.87;;
71562;SDS011;59391;52.504;13.438;2023-09-12T05:25:37;23.40;;;17.17;;
71562;SDS011;59391;52.504;13.438;2023-09-12T05:28:03;24.03;;;17.73;;
71562;SDS011;59391;52.504;13.438;2023-09-12T05:30:29;25.75;;;17.90;;
71562;SDS011;59391;52.504;13.438;2023-09-12T05:32:55;26.17;;;18.80;;
71562;SDS011;59391;52.504;13.438;2023-09-12T05:35:21;26.50;;;18.17;;
71562;SDS011;59391;52.504;13.438;2023-09-12T05:37:47;22.63;;;17.23;;
71562;SDS011;59391;52.504;13.438;2023-09-12T05:40:13;26.70;;;18.20;;
71562;SDS011;59391;52.504;13.438;2023-09-12T05:42:38;28.58;;;18.55;;
71562;SDS011;59391;52.504;13.438;2023-09-12T05:45:05;25.00;;;17.67;;
71562;SDS011;59391;52.504;13.438;2023-09-12T05:47:32;26.83;;;17.48;;
71562;SDS011;59391;52.504;13.438;2023-09-12T05:49:58;36.30;;;24.13;;
71562;SDS011;59391;52.504;13.438;2023-09-12T05:52:25;26.45;;;18.23;;
71562;SDS011;59391;52.504;13.438;2023-09-12T05:54:51;24.13;;;18.03;;
71562;SDS011;59391;52.504;13.438;2023-09-12T05:57:17;25.67;;;17.50;;
71562;SDS011;59391;52.504;13.438;2023-09-12T05:59:42;30.87;;;17.93;;
71562;SDS011;59391;52.504;13.438;2023-09-12T06:02:08;27.07;;;17.60;;
71562;SDS011;59391;52.504;13.438;2023-09-12T06:04:34;25.77;;;17.90;;
71562;SDS011;59391;52.504;13.438;2023-09-12T06:07:01;25.95;;;17.70;;
71562;SDS011;59391;52.504;13.438;2023-09-12T06:09:28;25.88;;;17.65;;
71562;SDS011;59391;52.504;13.438;2023-09-12T06:11:54;26.50;;;18.52;;
71562;SDS011;59391;52.504;13.438;2023-09-12T06:14:20;26.33;;;17.80;;
71562;SDS011;59391;52.504;13.438;2023-09-12T06:16:46;26.38;;;17.48;;
71562;SDS011;59391;52.504;13.438;2023-09-12T06:19:11;24.67;;;16.90;;
71562;SDS011;59391;52.504;13.438;2023-09-12T06:21:39;26.50;;;18.60;;
71562;SDS011;59391;52.504;13.438;2023-09-12T06:24:10;27.75;;;17.95;;
71562;SDS011;59391;52.504;13.438;2023-09-12T06:26:38;22.75;;;16.02;;
71562;SDS011;59391;52.504;13.438;2023-09-12T06:29:04;22.73;;;15.53;;
71562;SDS011;59391;52.504;13.438;2023-09-12T06:31:30;22.65;;;14.52;;
71562;SDS011;59391;52.504;13.438;2023-09-12T06:33:56;22.77;;;15.13;;
71562;SDS011;59391;52.504;13.438;2023-09-12T06:36:23;21.50;;;14.23;;
71562;SDS011;59391;52.504;13.438;2023-09-12T06:38:54;20.07;;;14.57;;
71562;SDS011;59391;52.504;13.438;2023-09-12T06:41:24;20.23;;;14.05;;
71562;SDS011;59391;52.504;13.438;2023-09-12T06:43:51;18.85;;;14.13;;
71562;SDS011;59391;52.504;13.438;2023-09-12T06:46:17;22.38;;;14.93;;
71562;SDS011;59391;52.504;13.438;2023-09-12T06:48:46;19.40;;;13.40;;
71562;SDS011;59391;52.504;13.438;2023-09-12T06:51:14;21.95;;;13.43;;
71562;SDS011;59391;52.504;13.438;2023-09-12T06:53:40;18.67;;;13.23;;
71562;SDS011;59391;52.504;13.438;2023-09-12T06:56:05;18.10;;;14.38;;
71562;SDS011;59391;52.504;13.438;2023-09-12T06:58:32;19.07;;;12.90;;
71562;SDS011;59391;52.504;13.438;2023-09-12T07:01:01;20.38;;;14.35;;
71562;SDS011;59391;52.504;13.438;2023-09-12T07:03:29;18.63;;;13.32;;
71562;SDS011;59391;52.504;13.438;2023-09-12T07:05:55;19.17;;;13.05;;
71562;SDS011;59391;52.504;13.438;2023-09-12T07:08:21;17.37;;;12.17;;
71562;SDS011;59391;52.504;13.438;2023-09-12T07:10:47;18.42;;;12.68;;
71562;SDS011;59391;52.504;13.438;2023-09-12T07:13:15;17.27;;;12.03;;
71562;SDS011;59391;52.504;13.438;2023-09-12T07:15:41;16.77;;;12.02;;
71562;SDS011;59391;52.504;13.438;2023-09-12T07:18:07;18.87;;;12.10;;
71562;SDS011;59391;52.504;13.438;2023-09-12T07:20:33;17.80;;;11.57;;
71562;SDS011;59391;52.504;13.438;2023-09-12T07:22:59;19.58;;;11.88;;
71562;SDS011;59391;52.504;13.438;2023-09-12T07:25:25;16.30;;;10.70;;
71562;SDS011;59391;52.504;13.438;2023-09-12T07:27:51;18.13;;;10.63;;
71562;SDS011;59391;52.504;13.438;2023-09-12T07:30:17;17.45;;;10.25;;
71562;SDS011;59391;52.504;13.438;2023-09-12T07:32:43;15.85;;;9.57;;
71562;SDS011;59391;52.504;13.438;2023-09-12T07:35:09;21.88;;;11.05;;
71562;SDS011;59391;52.504;13.438;2023-09-12T07:37:35;15.82;;;9.68;;
71562;SDS011;59391;52.504;13.438;2023-09-12T07:40:01;18.17;;;10.80;;
71562;SDS011;59391;52.504;13.438;2023-09-12T07:42:34;17.40;;;10.20;;
71562;SDS011;59391;52.504;13.438;2023-09-12T07:44:59;15.80;;;9.70;;
71562;SDS011;59391;52.504;13.438;2023-09-12T07:47:25;16.90;;;9.32;;
71562;SDS011;59391;52.504;13.438;2023-09-12T07:49:54;17.70;;;9.87;;
71562;SDS011;59391;52.504;13.438;2023-09-12T07:52:20;18.05;;;9.40;;
71562;SDS011;59391;52.504;13.438;2023-09-12T07:54:46;16.10;;;8.70;;
71562;SDS011;59391;52.504;13.438;2023-09-12T07:57:11;17.67;;;9.40;;
71562;SDS011;59391;52.504;13.438;2023-09-12T07:59:37;16.70;;;8.50;;
71562;SDS011;59391;52.504;13.438;2023-09-12T08:02:03;13.20;;;8.00;;
71562;SDS011;59391;52.504;13.438;2023-09-12T08:04:29;13.80;;;8.20;;
71562;SDS011;59391;52.504;13.438;2023-09-12T08:06:54;14.87;;;8.47;;
71562;SDS011;59391;52.504;13.438;2023-09-12T08:09:20;14.70;;;8.27;;
71562;SDS011;59391;52.504;13.438;2023-09-12T08:11:45;15.10;;;8.17;;
71562;SDS011;59391;52.504;13.438;2023-09-12T08:14:11;16.17;;;8.07;;
71562;SDS011;59391;52.504;13.438;2023-09-12T08:16:37;15.30;;;8.17;;
71562;SDS011;59391;52.504;13.438;2023-09-12T08:19:03;14.20;;;8.55;;
71562;SDS011;59391;52.504;13.438;2023-09-12T08:21:29;20.97;;;11.50;;
71562;SDS011;59391;52.504;13.438;2023-09-12T08:23:55;17.10;;;9.77;;
71562;SDS011;59391;52.504;13.438;2023-09-12T08:26:20;16.97;;;9.07;;
71562;SDS011;59391;52.504;13.438;2023-09-12T08:28:46;16.60;;;7.80;;
71562;SDS011;59391;52.504;13.438;2023-09-12T08:31:11;18.33;;;7.90;;
71562;SDS011;59391;52.504;13.438;2023-09-12T08:33:37;12.00;;;7.15;;
71562;SDS011;59391;52.504;13.438;2023-09-12T08:36:03;14.17;;;7.70;;
71562;SDS011;59391;52.504;13.438;2023-09-12T08:38:28;12.82;;;6.85;;
71562;SDS011;59391;52.504;13.438;2023-09-12T08:40:54;16.97;;;6.80;;
71562;SDS011;59391;52.504;13.438;2023-09-12T08:43:21;14.98;;;6.40;;
71562;SDS011;59391;52.504;13.438;2023-09-12T08:45:47;13.05;;;6.55;;
71562;SDS011;59391;52.504;13.438;2023-09-12T08:48:13;11.97;;;6.00;;
71562;SDS011;59391;52.504;13.438;2023-09-12T08:50:41;11.65;;;5.45;;
71562;SDS011;59391;52.504;13.438;2023-09-12T08:53:07;12.25;;;6.03;;
71562;SDS011;59391;52.504;13.438;2023-09-12T08:55:33;11.90;;;5.80;;
71562;SDS011;59391;52.504;13.438;2023-09-12T08:58:03;10.98;;;5.85;;
71562;SDS011;59391;52.504;13.438;2023-09-12T09:00:30;15.05;;;6.60;;
71562;SDS011;59391;52.504;13.438;2023-09-12T09:02:57;13.97;;;6.00;;
71562;SDS011;59391;52.504;13.438;2023-09-12T09:05:24;11.77;;;6.78;;
71562;SDS011;59391;52.504;13.438;2023-09-12T09:07:52;11.18;;;6.57;;
71562;SDS011;59391;52.504;13.438;2023-09-12T09:10:18;13.00;;;6.15;;
71562;SDS011;59391;52.504;13.438;2023-09-12T09:12:45;13.50;;;9.05;;
71562;SDS011;59391;52.504;13.438;2023-09-12T09:15:21;16.73;;;8.00;;
71562;SDS011;59391;52.504;13.438;2023-09-12T09:17:49;11.63;;;7.15;;
71562;SDS011;59391;52.504;13.438;2023-09-12T09:20:33;12.73;;;6.63;;
71562;SDS011;59391;52.504;13.438;2023-09-12T09:23:04;12.82;;;5.63;;
71562;SDS011;59391;52.504;13.438;2023-09-12T09:25:32;13.75;;;5.70;;
71562;SDS011;59391;52.504;13.438;2023-09-12T09:28:02;10.83;;;5.40;;
71562;SDS011;59391;52.504;13.438;2023-09-12T09:30:40;13.48;;;6.35;;
71562;SDS011;59391;52.504;13.438;2023-09-12T09:33:07;13.63;;;5.78;;
71562;SDS011;59391;52.504;13.438;2023-09-12T09:35:34;16.02;;;5.53;;
71562;SDS011;59391;52.504;13.438;2023-09-12T09:38:00;13.18;;;6.03;;
71562;SDS011;59391;52.504;13.438;2023-09-12T09:40:28;16.70;;;6.13;;
71562;SDS011;59391;52.504;13.438;2023-09-12T09:43:00;13.02;;;6.32;;
71562;SDS011;59391;52.504;13.438;2023-09-12T09:45:29;15.18;;;6.30;;
71562;SDS011;59391;52.504;13.438;2023-09-12T09:48:04;14.05;;;6.32;;
71562;SDS011;59391;52.504;13.438;2023-09-12T09:50:36;13.53;;;6.97;;
71562;SDS011;59391;52.504;13.438;2023-09-12T09:53:03;14.55;;;6.35;;
71562;SDS011;59391;52.504;13.438;2023-09-12T09:55:30;14.48;;;7.35;;
71562;SDS011;59391;52.504;13.438;2023-09-12T09:57:57;14.93;;;6.97;;
71562;SDS011;59391;52.504;13.438;2023-09-12T10:00:23;15.85;;;7.30;;
71562;SDS011;59391;52.504;13.438;2023-09-12T10:02:50;13.07;;;7.67;;
71562;SDS011;59391;52.504;13.438;2023-09-12T10:05:19;13.43;;;7.90;;
71562;SDS011;59391;52.504;13.438;2023-09-12T10:07:47;18.45;;;8.27;;
71562;SDS011;59391;52.504;13.438;2023-09-12T10:10:16;18.75;;;7.88;;
71562;SDS011;59391;52.504;13.438;2023-09-12T10:12:49;14.63;;;8.38;;
71562;SDS011;59391;52.504;13.438;2023-09-12T10:15:22;14.40;;;8.70;;
71562;SDS011;59391;52.504;13.438;2023-09-12T10:17:57;14.52;;;8.30;;
71562;SDS011;59391;52.504;13.438;2023-09-12T10:20:27;14.63;;;8.95;;
71562;SDS011;59391;52.504;13.438;2023-09-12T10:23:07;12.63;;;8.70;;
71562;SDS011;59391;52.504;13.438;2023-09-12T10:25:39;12.52;;;8.13;;
71562;SDS011;59391;52.504;13.438;2023-09-12T10:28:07;16.87;;;8.33;;
71562;SDS011;59391;52.504;13.438;2023-09-12T10:30:34;13.15;;;8.13;;
71562;SDS011;59391;52.504;13.438;2023-09-12T10:33:02;15.23;;;8.48;;
71562;SDS011;59391;52.504;13.438;2023-09-12T10:35:30;14.88;;;8.65;;
71562;SDS011;59391;52.504;13.438;2023-09-12T10:38:00;14.40;;;8.13;;
71562;SDS011;59391;52.504;13.438;2023-09-12T10:40:31;14.87;;;7.90;;
71562;SDS011;59391;52.504;13.438;2023-09-12T10:43:01;11.45;;;7.03;;
71562;SDS011;59391;52.504;13.438;2023-09-12T10:45:33;15.35;;;7.00;;
71562;SDS011;59391;52.504;13.438;2023-09-12T10:48:04;15.98;;;7.40;;
71562;SDS011;59391;52.504;13.438;2023-09-12T10:50:29;18.63;;;7.07;;
71562;SDS011;59391;52.504;13.438;2023-09-12T10:52:56;13.50;;;6.30;;
71562;SDS011;59391;52.504;13.438;2023-09-12T10:55:35;15.43;;;6.85;;
71562;SDS011;59391;52.504;13.438;2023-09-12T11:00:29;15.15;;;6.93;;
71562;SDS011;59391;52.504;13.438;2023-09-12T11:02:59;13.52;;;6.60;;
71562;SDS011;59391;52.504;13.438;2023-09-12T11:05:54;16.02;;;6.57;;
71562;SDS011;59391;52.504;13.438;2023-09-12T11:08:21;15.73;;;6.90;;
71562;SDS011;59391;52.504;13.438;2023-09-12T11:13:43;11.57;;;6.05;;
71562;SDS011;59391;52.504;13.438;2023-09-12T11:16:11;15.65;;;7.63;;
71562;SDS011;59391;52.504;13.438;2023-09-12T11:19:16;12.63;;;6.10;;
71562;SDS011;59391;52.504;13.438;2023-09-12T11:21:47;14.50;;;6.55;;
71562;SDS011;59391;52.504;13.438;2023-09-12T11:24:18;11.83;;;6.37;;
71562;SDS011;59391;52.504;13.438;2023-09-12T11:26:58;15.18;;;6.82;;
71562;SDS011;59391;52.504;13.438;2023-09-12T11:29:27;14.73;;;7.00;;
71562;SDS011;59391;52.504;13.438;2023-09-12T11:31:59;14.85;;;6.43;;
71562;SDS011;59391;52.504;13.438;2023-09-12T11:34:27;15.32;;;6.97;;
71562;SDS011;59391;52.504;13.438;2023-09-12T11:37:01;14.87;;;7.90;;
71562;SDS011;59391;52.504;13.438;2023-09-12T11:39:30;17.17;;;7.28;;
71562;SDS011;59391;52.504;13.438;2023-09-12T11:41:58;13.52;;;6.78;;
71562;SDS011;59391;52.504;13.438;2023-09-12T11:44:26;13.73;;;6.72;;
71562;SDS011;59391;52.504;13.438;2023-09-12T11:46:53;14.20;;;6.70;;
71562;SDS011;59391;52.504;13.438;2023-09-12T11:49:19;11.10;;;6.13;;
71562;SDS011;59391;52.504;13.438;2023-09-12T11:51:52;12.43;;;6.25;;
71562;SDS011;59391;52.504;13.438;2023-09-12T11:54:28;11.63;;;6.18;;
71562;SDS011;59391;52.504;13.438;2023-09-12T11:56:56;9.50;;;6.03;;
71562;SDS011;59391;52.504;13.438;2023-09-12T11:59:24;12.13;;;6.00;;
71562;SDS011;59391;52.504;13.438;2023-09-12T12:01:52;9.50;;;6.10;;
71562;SDS011;59391;52.504;13.438;2023-09-12T12:04:21;10.20;;;5.75;;
71562;SDS011;59391;52.504;13.438;2023-09-12T12:06:50;11.27;;;6.28;;
71562;SDS011;59391;52.504;13.438;2023-09-12T12:09:17;9.35;;;6.20;;
71562;SDS011;59391;52.504;13.438;2023-09-12T12:11:44;12.43;;;5.93;;
71562;SDS011;59391;52.504;13.438;2023-09-12T12:14:14;13.40;;;6.67;;
71562;SDS011;59391;52.504;13.438;2023-09-12T12:16:42;10.65;;;6.43;;
71562;SDS011;59391;52.504;13.438;2023-09-12T12:19:10;14.27;;;5.82;;
71562;SDS011;59391;52.504;13.438;2023-09-12T12:21:37;10.85;;;5.55;;
71562;SDS011;59391;52.504;13.438;2023-09-12T12:24:09;10.13;;;5.68;;
71562;SDS011;59391;52.504;13.438;2023-09-12T12:26:42;9.30;;;5.43;;
71562;SDS011;59391;52.504;13.438;2023-09-12T12:29:08;9.25;;;6.10;;
71562;SDS011;59391;52.504;13.438;2023-09-12T12:31:36;8.95;;;5.65;;
71562;SDS011;59391;52.504;13.438;2023-09-12T12:34:02;13.30;;;5.75;;
71562;SDS011;59391;52.504;13.438;2023-09-12T12:36:30;12.52;;;5.75;;
71562;SDS011;59391;52.504;13.438;2023-09-12T12:38:56;14.87;;;6.07;;
71562;SDS011;59391;52.504;13.438;2023-09-12T12:41:25;8.52;;;5.22;;
71562;SDS011;59391;52.504;13.438;2023-09-12T12:43:56;9.88;;;5.78;;
71562;SDS011;59391;52.504;13.438;2023-09-12T12:46:25;11.57;;;5.70;;
71562;SDS011;59391;52.504;13.438;2023-09-12T12:48:52;11.02;;;5.75;;
71562;SDS011;59391;52.504;13.438;2023-09-12T12:51:24;9.90;;;5.55;;
71562;SDS011;59391;52.504;13.438;2023-09-12T12:53:55;12.48;;;5.88;;
71562;SDS011;59391;52.504;13.438;2023-09-12T12:56:29;10.90;;;5.88;;
71562;SDS011;59391;52.504;13.438;2023-09-12T12:58:55;13.87;;;5.73;;
71562;SDS011;59391;52.504;13.438;2023-09-12T13:01:28;9.05;;;5.68;;
71562;SDS011;59391;52.504;13.438;2023-09-12T13:03:54;12.30;;;5.80;;
71562;SDS011;59391;52.504;13.438;2023-09-12T13:06:21;7.22;;;5.07;;
71562;SDS011;59391;52.504;13.438;2023-09-12T13:08:48;10.40;;;5.38;;
71562;SDS011;59391;52.504;13.438;2023-09-12T13:11:15;12.20;;;5.70;;
71562;SDS011;59391;52.504;13.438;2023-09-12T13:13:42;9.15;;;6.10;;
71562;SDS011;59391;52.504;13.438;2023-09-12T13:16:09;8.98;;;5.55;;
71562;SDS011;59391;52.504;13.438;2023-09-12T13:18:38;11.13;;;5.75;;
71562;SDS011;59391;52.504;13.438;2023-09-12T13:21:05;11.13;;;5.50;;
71562;SDS011;59391;52.504;13.438;2023-09-12T13:23:32;12.57;;;5.70;;
71562;SDS011;59391;52.504;13.438;2023-09-12T13:26:01;11.95;;;5.75;;
71562;SDS011;59391;52.504;13.438;2023-09-12T13:28:27;11.32;;;5.50;;
71562;SDS011;59391;52.504;13.438;2023-09-12T13:30:54;10.15;;;5.57;;
71562;SDS011;59391;52.504;13.438;2023-09-12T13:33:20;10.35;;;5.60;;
71562;SDS011;59391;52.504;13.438;2023-09-12T13:35:47;12.50;;;5.73;;
71562;SDS011;59391;52.504;13.438;2023-09-12T13:38:14;13.90;;;5.97;;
71562;SDS011;59391;52.504;13.438;2023-09-12T13:40:42;9.35;;;5.72;;
71562;SDS011;59391;52.504;13.438;2023-09-12T13:43:10;11.97;;;5.77;;
71562;SDS011;59391;52.504;13.438;2023-09-12T13:45:36;11.25;;;6.03;;
71562;SDS011;59391;52.504;13.438;2023-09-12T13:48:03;11.77;;;6.07;;
71562;SDS011;59391;52.504;13.438;2023-09-12T13:50:30;10.00;;;5.87;;
71562;SDS011;59391;52.504;13.438;2023-09-12T13:53:00;10.30;;;5.22;;
71562;SDS011;59391;52.504;13.438;2023-09-12T13:55:33;12.48;;;5.35;;
71562;SDS011;59391;52.504;13.438;2023-09-12T13:58:03;10.90;;;5.47;;
71562;SDS011;59391;52.504;13.438;2023-09-12T14:00:31;13.55;;;5.45;;
71562;SDS011;59391;52.504;13.438;2023-09-12T14:02:58;12.30;;;5.33;;
71562;SDS011;59391;52.504;13.438;2023-09-12T14:05:24;10.98;;;6.00;;
71562;SDS011;59391;52.504;13.438;2023-09-12T14:07:50;11.33;;;5.77;;
71562;SDS011;59391;52.504;13.438;2023-09-12T14:10:16;10.20;;;5.82;;
71562;SDS011;59391;52.504;13.438;2023-09-12T14:12:42;10.55;;;6.03;;
71562;SDS011;59391;52.504;13.438;2023-09-12T14:15:09;13.77;;;6.00;;
71562;SDS011;59391;52.504;13.438;2023-09-12T14:17:37;12.75;;;5.90;;
71562;SDS011;59391;52.504;13.438;2023-09-12T14:20:02;16.00;;;6.43;;
71562;SDS011;59391;52.504;13.438;2023-09-12T14:22:29;10.60;;;5.72;;
71562;SDS011;59391;52.504;13.438;2023-09-12T14:24:54;11.03;;;5.73;;
71562;SDS011;59391;52.504;13.438;2023-09-12T14:27:20;11.52;;;5.70;;
71562;SDS011;59391;52.504;13.438;2023-09-12T14:29:46;11.53;;;6.13;;